Latest Weather Observations for Grove - Huon Valley - Tasmania

Station Details ID: 094220 Name: GROVE (RESEARCH STATION) Lat: -42.99 Lon: 147.07 Height: 65.0 m
Data from the previous 72 hours : Issued at 8:01 pm EDT Thursday 15 November 2018
Date/Time
EST
Temp
°C
App
Temp
°C
Dew
Point
°C
Rel
Hum
%
Delta-T
°C
Wind Press
QNH
hPa
Press
MSL
hPa
Rain since
9am
mm
Dir  Spd
km/h
Gust
km/h
Spd
kts
Gust
kts
15/08:00pm 10.1 6.9 3.2 62 3 E 9 17 5 9 1.8
15/07:30pm 10.5 6.5 2.9 59 3.3 E 13 17 7 9 1.8
15/07:00pm 11 7.3 2.4 55 3.7 SE 11 17 6 9 1.8
15/06:30pm 11.4 7.8 2.7 55 3.8 ESE 11 15 6 8 1.8
15/06:00pm 11.6 7.6 2.6 54 3.9 E 13 22 7 12 1.8
15/05:30pm 12.3 9.6 3.6 55 3.9 E 7 13 4 7 1.8
15/05:00pm 12.5 8.4 4.4 58 3.7 E 15 20 8 11 1.8
15/04:30pm 12.8 9.5 4.5 57 3.8 ENE 11 19 6 10 1.8
15/04:00pm 12.3 7.8 4.4 58 3.6 NE 17 24 9 13 1.8
15/03:30pm 13.1 8.9 5.7 61 3.5 ENE 17 20 9 11 1.8
15/03:00pm 12.9 9.6 6.2 64 3.2 NE 13 20 7 11 1.8
15/02:30pm 13 10.7 5.8 61 3.4 N 7 11 4 6 1.8
15/02:00pm 11.4 8.8 6.3 71 2.4 SSW 9 15 5 8 1.6
15/01:30pm 12.9 9.6 6.2 64 3.2 S 13 24 7 13 1.6
15/01:00pm 11.6 9.9 7.7 77 1.9 SW 6 9 3 5 1.6
15/12:30pm 11.3 8 6.2 71 2.4 SW 13 24 7 13 0.8
15/12:00pm 11.1 9 8.2 82 1.4 SW 9 13 5 7 0.8
15/11:30am 10.1 6.3 7.4 83 1.3 S 17 33 9 18 0.4
15/11:20am 10.5 4 6.7 77 1.8 SW 30 37 16 20 0.4
15/11:00am 11.1 9.2 7.4 78 1.8 SSW 7 11 4 6 0.4
15/10:30am 10.9 7.3 6.9 76 1.9 S 15 24 8 13 0.0
15/10:00am 12.1 9.9 6.4 68 2.7 S 7 15 4 8 0.0
15/09:30am 11.5 8.6 6.7 72 2.3 SSW 11 17 6 9 0.0
15/09:00am 11.5 9.5 6.4 71 2.4 SSW 6 11 3 6 5.2
15/08:30am 10.3 8.9 7.4 82 1.4 E 4 9 2 5 5.2
15/08:00am 8.1 6.9 7.9 99 0.1 NNE 4 7 2 4 5.2
15/07:30am 7.1 5.6 6.9 99 0.1 NNE 4 11 2 6 5.2
15/07:00am 7.1 5.6 6.9 99 0.1 NNW 4 6 2 3 5.2
15/06:30am 7.1 5.2 6.9 99 0.1 N 6 9 3 5 5.2
15/06:00am 6.7 5.5 6.5 99 0.1 E 2 7 1 4 5.2
15/05:30am 6.9 6.1 6.7 99 0.1 CALM 0 0 0 0 5.2
15/05:00am 6.9 5 6.9 100 0 NE 6 9 3 5 5.2
15/04:30am 7.4 5.6 7.2 99 0.1 WNW 6 6 3 3 5.2
15/04:00am 6.9 6.1 6.7 99 0.1 CALM 0 6 0 3 5.2
15/03:30am 7.1 6.4 6.9 99 0.1 CALM 0 0 0 0 5.2
15/03:00am 7.6 7 7.4 99 0.1 CALM 0 0 0 0 5.2
15/02:30am 7.9 7.4 7.7 99 0.1 CALM 0 0 0 0 5.2
15/02:00am 7.8 6.5 7.6 99 0.1 W 4 9 2 5 5.2
15/01:30am 8 7.1 7.8 99 0.1 NW 2 6 1 3 5.2
15/01:00am 7.8 6.8 7.4 97 0.2 WSW 2 6 1 3 5.2
15/12:30am 7.2 6.5 6.8 97 0.2 CALM 0 7 0 4 5.2
15/12:00am 7.8 6.1 7.4 97 0.2 N 6 7 3 4 5.2
14/11:30pm 8.6 8.1 8 96 0.3 CALM 0 7 0 4 5.2
14/11:00pm 9 7.5 8.4 96 0.3 SSW 6 7 3 4 5.2
14/10:30pm 9.6 8.2 8.8 95 0.4 SSW 6 11 3 6 5.2
14/10:00pm 9.9 8.4 9.1 95 0.4 SSW 7 11 4 6 5.0
14/09:30pm 10 8.7 9.2 95 0.4 S 6 9 3 5 5.0
14/09:00pm 10.1 8.7 9.5 96 0.3 SW 7 11 4 6 5.0
14/08:30pm 10.3 8.9 9.5 95 0.4 SSW 7 13 4 7 4.2
14/08:00pm 10.6 9.3 9.8 95 0.4 SSW 7 11 4 6 3.2
14/07:30pm 11 9.7 10 93 0.5 S 7 13 4 7 3.2
14/07:00pm 10.9 9.7 10.3 96 0.3 S 7 13 4 7 3.2
14/06:30pm 11 9.5 10.4 96 0.3 S 9 13 5 7 3.2
14/06:00pm 11.1 11.3 10.5 96 0.3 CALM 0 0 0 0 3.0
14/05:30pm 11.1 10 10.5 96 0.3 SSW 7 11 4 6 2.4
14/05:00pm 11.2 9.3 10.4 95 0.4 SSW 11 19 6 10 1.6
14/04:30pm 11.4 9.9 10.4 94 0.5 SSW 9 13 5 7 0.8
14/04:00pm 12.6 10.2 9.9 83 1.4 E 13 24 7 13 0.0
14/03:30pm 13.5 9.7 9.2 75 2.2 E 19 28 10 15 0.0
14/03:00pm 13.7 9 9.4 75 2.2 E 24 37 13 20 0.0
14/02:30pm 14.9 11.3 9.9 72 2.6 E 19 30 10 16 0.0
14/02:00pm 15.8 12.6 9.9 68 3.1 ENE 17 26 9 14 0.0
14/01:30pm 16.2 11.8 10.3 68 3.1 E 24 35 13 19 0.0
14/01:00pm 18.3 15.6 7.5 49 5.5 SSE 11 20 6 11 0.0
14/12:30pm 18 15.4 7.8 51 5.2 SSW 11 15 6 8 0.0
14/12:00pm 17.5 15.2 9 57 4.4 SSW 11 17 6 9 0.0
14/11:30am 17.1 14.2 8.1 55 4.6 S 13 19 7 10 0.0
14/11:00am 17 14.3 8.9 59 4.2 SW 13 17 7 9 0.0
14/10:30am 17.3 14.8 8.1 54 4.7 SSW 11 17 6 9 0.0
14/10:00am 16.5 14.5 8.5 59 4.1 SSW 9 15 5 8 0.0
14/09:30am 16.8 14.7 8.4 57 4.3 S 9 15 5 8 0.0
14/09:00am 15.7 13.8 8.9 64 3.5 SSW 9 13 5 7 0.0
14/08:30am 15.5 13.1 8.6 63 3.5 SSW 11 19 6 10 0.0
14/08:00am 15.6 12.5 9 65 3.4 S 15 22 8 12 0.0
14/07:30am 14.6 11.9 8.9 68 2.9 SSW 13 19 7 10 0.0
14/07:00am 14.3 12.1 9.2 71 2.6 SSW 11 17 6 9 0.0
14/06:30am 13.6 13.5 9.5 76 2.1 CALM 0 0 0 0 0.0
14/06:00am 13.6 12.4 9.5 76 2.1 SSW 6 9 3 5 0.0
14/05:30am 13.4 12.1 9.3 76 2.1 S 6 9 3 5 0.0
14/05:00am 14.5 13 9 69 2.8 S 7 11 4 6 0.0
14/04:30am 15.9 14 7.7 58 4.1 W 7 11 4 6 0.0
14/04:00am 15.6 13.2 8.8 64 3.5 S 11 17 6 9 0.0
14/03:30am 16.3 14.3 8.7 60 3.9 S 9 22 5 12 0.0
14/03:00am 15.9 14.7 10.2 69 3 SSW 7 13 4 7 0.0
14/02:30am 15.7 14.2 10.6 71 2.7 S 9 15 5 8 0.0
14/02:00am 14.1 13.3 10.9 81 1.7 SSW 6 7 3 4 0.0
14/01:30am 15.3 15.1 10.6 73 2.5 E 2 7 1 4 0.0
14/01:00am 16 15.1 10.8 71 2.8 SW 6 9 3 5 0.0
14/12:30am 16.8 14.8 10.2 65 3.5 WSW 11 22 6 12 0.0
14/12:00am 14.3 13.9 11.1 81 1.7 N 4 7 2 4 0.0
13/11:30pm 16.1 15.3 11.1 72 2.7 W 6 7 3 4 0.0
13/11:00pm 17.2 15.4 10.7 65 3.5 S 11 17 6 9 0.0
13/10:30pm 18 16.6 10.8 63 3.9 ESE 9 13 5 7 0.0
13/10:00pm 18.4 17.3 10.6 60 4.2 SSE 7 13 4 7 0.0
13/09:30pm 19.8 18.3 10.6 55 5 SW 9 17 5 9 0.0
13/09:00pm 20.7 17 10 50 5.8 SW 20 30 11 16 0.0
13/08:30pm 22.6 19.6 9.2 42 7.2 SSW 15 24 8 13 0.0
13/08:00pm 25.2 20.2 3.5 24 10.7 W 19 24 10 13 0.0
13/07:30pm 25.7 21.4 3.4 23 11 N 15 22 8 12 0.0
13/07:00pm 26.2 22.1 4.1 24 11.1 N 15 24 8 13 0.0
13/06:30pm 27.2 21 2.2 20 12.2 NW 24 48 13 26 0.0
13/06:23pm 27.4 20.2 0.7 17 12.7 NNW 28 46 15 25 0.0
13/06:22pm 27.4 20.2 0.7 17 12.7 NNW 28 46 15 25 0.0
13/06:00pm 27.6 20.8 0.8 17 12.8 NW 26 37 14 20 0.0
13/05:59pm 27.5 20.3 0.9 17 12.7 NW 28 33 15 18 0.0
13/05:58pm 27.5 20.3 0.9 17 12.7 NW 28 37 15 20 0.0
13/05:30pm 27.6 25.4 6 25 11.3 NNW 7 13 4 7 0.0
13/05:00pm 28.1 24.4 4.7 22 12 NNW 13 20 7 11 0.0
13/04:30pm 28.4 23.1 2.9 19 12.7 NW 20 35 11 19 0.0
13/04:00pm 28.3 24.1 5.7 23 11.8 W 17 24 9 13 0.0
13/03:30pm 27.3 23.3 5.1 24 11.4 NNW 15 30 8 16 0.0
13/03:00pm 28.3 25.4 6.3 24 11.6 NW 11 20 6 11 0.0
13/02:30pm 27.7 25.1 7.9 28 10.7 NW 11 28 6 15 0.0
13/02:00pm 26.9 24.1 6.9 28 10.6 NNE 11 33 6 18 0.0
13/01:30pm 27.2 23.2 5 24 11.4 NW 15 22 8 12 0.0
13/01:00pm 26.8 21.5 4.9 24 11.2 W 22 43 12 23 0.0
13/12:30pm 26.8 22.3 4.2 23 11.4 N 17 32 9 17 0.0
13/12:00pm 26 22.5 5.6 27 10.5 N 13 20 7 11 0.0
13/11:30am 23.7 19.9 3.7 27 9.8 N 13 20 7 11 0.0
13/11:00am 22.9 19.8 5.7 32 8.7 WNW 11 20 6 11 0.0
13/10:30am 22.3 18.2 2.4 27 9.4 N 13 24 7 13 0.0
13/10:00am 21.5 16.1 2.7 29 8.9 N 20 33 11 18 0.0
13/09:30am 21.4 16.6 2.5 28 8.9 NW 17 24 9 13 0.0
13/09:00am 21.9 17.3 1.3 25 9.5 NNE 15 24 8 13 0.0
13/08:30am 21.9 15.5 1 25 9.6 NW 24 37 13 20 0.0
13/08:00am 21.2 15.8 1.4 27 9.1 N 19 37 10 20 0.0
13/07:30am 21.6 16.1 0.4 24 9.6 NNW 19 32 10 17 0.0
13/07:00am 21.3 15.8 0.9 25 9.3 NNW 19 30 10 16 0.0
13/06:30am 17.9 14.2 4.5 41 6.4 SW 13 20 7 11 0.0
13/06:00am 16.4 13.4 5.9 50 5.1 E 11 17 6 9 0.0
13/05:30am 12.5 11.3 9.6 82 1.5 SSW 6 9 3 5 0.0
13/05:00am 11.6 9.9 10 90 0.8 N 9 13 5 7 0.0
13/04:30am 11.3 10.6 10.1 92 0.6 NNE 4 7 2 4 0.0
13/04:00am 10.8 10.1 10 95 0.4 SW 4 11 2 6 0.0
13/03:30am 10.6 9.9 10 96 0.3 NE 4 9 2 5 0.0
13/03:00am 10.6 10.7 10 96 0.3 CALM 0 0 0 0 0.0
13/02:30am 10.4 10.4 9.8 96 0.3 CALM 0 0 0 0 0.0
13/02:00am 10.4 10.4 9.8 96 0.3 CALM 0 0 0 0 0.0
13/01:30am 10.6 10.6 9.8 95 0.4 CALM 0 0 0 0 0.0
13/01:00am 11.3 10.7 10.3 94 0.5 NE 4 9 2 5 0.0
13/12:30am 11.6 10.9 10.2 91 0.7 NE 4 7 2 4 0.0
13/12:00am 12 12.2 10.7 92 0.7 CALM 0 0 0 0 0.0
12/11:30pm 12 11 10.3 89 0.9 WSW 6 7 3 4 0.0
12/11:00pm 12 12.2 10.5 90 0.8 CALM 0 0 0 0 0.0
12/10:30pm 12.4 11.5 10.5 88 1 WSW 6 9 3 5 0.0
12/10:00pm 12.9 11.7 10.4 85 1.3 W 7 9 4 5 0.0
12/09:30pm 12.8 11.7 10.7 87 1.1 N 7 11 4 6 0.0
12/09:00pm 13 12.4 10.5 85 1.3 WSW 4 7 2 4 0.0
12/08:30pm 13.3 12.1 10.2 81 1.6 WSW 7 11 4 6 0.0
Data Provided by Australian Government Bureau of Meteorology